Time;durP1;ratioP1;P1;durP2;ratioP2;P2;SDS_P1;SDS_P2;PMS_P1;PMS_P2;Temp;Humidity;BMP_temperature;BMP_pressure;BME280_temperature;BME280_humidity;BME280_pressure;Samples;Min_cycle;Max_cycle;Signal;HPM_P1;HPM_P2
2022/03/27 00:00:53;;;;;;;29.60;14.07;;;8.50;96.60;;;;;;4824066;29;20023;-94
2022/03/27 00:03:19;;;;;;;29.80;16.30;;;8.50;96.90;;;;;;4810348;29;20469;-96
2022/03/27 00:05:46;;;;;;;28.42;14.68;;;8.50;97.30;;;;;;4806853;29;20054;-95
2022/03/27 00:08:12;;;;;;;33.60;15.85;;;8.50;97.50;;;;;;4825866;29;20039;-95
2022/03/27 00:13:25;;;;;;;29.85;16.85;;;8.50;98.10;;;;;;4819818;29;20060;-95
2022/03/27 00:15:50;;;;;;;32.97;15.75;;;8.50;98.40;;;;;;4805387;29;20109;-96
2022/03/27 00:18:17;;;;;;;33.08;16.15;;;8.40;98.60;;;;;;4824646;29;20082;-96
2022/03/27 00:20:43;;;;;;;34.58;17.45;;;8.30;98.80;;;;;;4807235;29;20023;-96
2022/03/27 00:23:14;;;;;;;30.83;15.82;;;8.30;99.10;;;;;;4817834;29;20540;-95
2022/03/27 00:25:40;;;;;;;34.97;16.17;;;8.20;99.50;;;;;;4816588;29;20042;-94
2022/03/27 00:28:06;;;;;;;31.75;17.05;;;8.10;99.80;;;;;;4810486;29;20072;-95
2022/03/27 00:30:32;;;;;;;53.42;27.10;;;8.00;99.90;;;;;;4810250;29;20055;-95
2022/03/27 00:36:21;;;;;;;47.45;24.85;;;7.80;99.90;;;;;;5245804;23;20134;-94
2022/03/27 00:38:48;;;;;;;48.47;21.30;;;7.70;99.90;;;;;;4834791;29;20112;-96
2022/03/27 00:41:16;;;;;;;44.60;22.88;;;7.60;99.90;;;;;;4835661;29;20062;-96
2022/03/27 00:43:41;;;;;;;39.88;19.05;;;7.50;99.90;;;;;;4854463;29;20065;-93
2022/03/27 00:46:08;;;;;;;43.45;22.90;;;7.40;99.90;;;;;;4858487;29;20041;-95
2022/03/27 00:48:34;;;;;;;41.28;20.85;;;7.40;99.90;;;;;;4836438;29;20034;-94
2022/03/27 00:51:01;;;;;;;47.65;21.25;;;7.40;99.90;;;;;;4853487;29;20081;-93
2022/03/27 00:53:28;;;;;;;40.88;20.10;;;7.30;99.90;;;;;;4861609;29;20111;-94
2022/03/27 00:55:53;;;;;;;36.28;19.17;;;7.30;99.90;;;;;;4837793;29;20030;-94
2022/03/27 00:58:19;;;;;;;38.25;19.35;;;7.30;99.90;;;;;;4833748;29;20045;-95
2022/03/27 01:01:13;;;;;;;37.22;19.00;;;7.20;99.90;;;;;;4819121;29;20077;-95
2022/03/27 01:03:40;;;;;;;34.67;16.98;;;7.20;99.90;;;;;;4851888;29;20058;-94
2022/03/27 01:06:29;;;;;;;33.60;18.08;;;7.30;99.90;;;;;;4851449;29;20038;-95
2022/03/27 01:11:42;;;;;;;33.10;17.58;;;7.30;99.90;;;;;;4856653;29;20041;-94
2022/03/27 01:14:09;;;;;;;39.33;18.85;;;7.30;99.90;;;;;;4854822;29;20056;-96
2022/03/27 01:16:45;;;;;;;33.30;17.92;;;7.30;99.90;;;;;;4834962;29;20086;-95
2022/03/27 01:19:14;;;;;;;34.53;17.25;;;7.30;99.90;;;;;;4853049;29;20029;-95
2022/03/27 01:21:42;;;;;;;32.28;16.48;;;7.40;99.90;;;;;;4836672;29;20030;-95
2022/03/27 01:24:11;;;;;;;31.27;16.40;;;7.30;99.90;;;;;;4835115;29;20512;-94
2022/03/27 01:26:38;;;;;;;33.72;18.13;;;7.30;99.90;;;;;;4851947;29;20021;-94
2022/03/27 01:29:05;;;;;;;31.85;16.33;;;7.30;99.90;;;;;;4836281;29;20042;-94
2022/03/27 01:31:32;;;;;;;31.42;15.88;;;7.20;99.90;;;;;;4852397;29;20112;-94
2022/03/27 01:33:58;;;;;;;25.15;13.95;;;7.20;99.90;;;;;;4859017;29;20109;-94
2022/03/27 01:36:34;;;;;;;28.20;14.20;;;7.10;99.90;;;;;;4837883;29;20076;-94
2022/03/27 01:39:03;;;;;;;25.90;13.77;;;7.10;99.90;;;;;;4855870;29;20069;-95
2022/03/27 01:41:30;;;;;;;23.38;13.45;;;7.00;99.90;;;;;;4839889;29;20564;-95
2022/03/27 01:43:59;;;;;;;24.42;11.85;;;6.90;99.90;;;;;;4856350;29;20100;-94
2022/03/27 01:46:25;;;;;;;22.00;12.20;;;6.90;99.90;;;;;;4855069;29;20062;-94
2022/03/27 01:48:51;;;;;;;20.38;10.40;;;6.90;99.90;;;;;;4853241;29;20026;-94
2022/03/27 01:51:17;;;;;;;32.08;16.38;;;6.80;99.90;;;;;;4855116;29;20041;-95
2022/03/27 01:53:43;;;;;;;39.65;19.70;;;6.70;99.90;;;;;;4835445;29;20046;-96
2022/03/27 01:56:09;;;;;;;35.95;18.83;;;6.70;99.90;;;;;;4836117;29;20496;-94
2022/03/27 01:58:39;;;;;;;38.03;18.77;;;6.50;99.90;;;;;;4838411;29;20128;-95
2022/03/27 02:01:07;;;;;;;38.42;18.83;;;6.50;99.90;;;;;;4838116;29;20523;-96
2022/03/27 02:03:33;;;;;;;34.95;16.70;;;6.40;99.90;;;;;;4839023;29;20038;-94
2022/03/27 02:05:59;;;;;;;36.60;18.42;;;6.40;99.90;;;;;;4820783;29;20087;-95
2022/03/27 02:08:26;;;;;;;33.95;16.55;;;6.40;99.90;;;;;;4843492;29;20034;-93
2022/03/27 02:10:52;;;;;;;39.05;18.60;;;6.40;99.90;;;;;;4851842;29;20093;-95
2022/03/27 02:13:19;;;;;;;36.95;19.70;;;6.30;99.90;;;;;;4867978;29;20044;-95
2022/03/27 02:15:47;;;;;;;41.75;18.73;;;6.30;99.90;;;;;;4851757;29;20458;-95
2022/03/27 02:18:16;;;;;;;38.13;18.63;;;6.20;99.90;;;;;;4848894;29;20062;-95
2022/03/27 02:20:45;;;;;;;33.88;17.27;;;6.20;99.90;;;;;;4863379;29;20112;-95
2022/03/27 02:23:14;;;;;;;37.45;17.90;;;6.20;99.90;;;;;;4829142;29;20038;-95
2022/03/27 02:25:41;;;;;;;34.10;17.45;;;6.20;99.90;;;;;;4858249;29;20134;-94
2022/03/27 02:28:09;;;;;;;33.30;17.40;;;6.20;99.90;;;;;;4844177;29;20049;-95
2022/03/27 02:30:36;;;;;;;34.80;16.88;;;6.20;99.90;;;;;;4839252;29;20034;-93
2022/03/27 02:33:02;;;;;;;31.67;16.70;;;6.20;99.90;;;;;;4838588;29;20034;-94
2022/03/27 02:35:27;;;;;;;35.60;17.55;;;6.20;99.90;;;;;;4865357;29;20034;-96
2022/03/27 02:37:53;;;;;;;38.75;18.05;;;6.20;99.90;;;;;;4859003;29;20106;-94
2022/03/27 02:40:19;;;;;;;29.95;14.77;;;6.20;99.90;;;;;;4853218;29;20026;-95
2022/03/27 02:42:45;;;;;;;35.58;16.25;;;6.20;99.90;;;;;;4822003;29;20042;-95
2022/03/27 02:45:11;;;;;;;35.25;16.23;;;6.20;99.90;;;;;;4853683;29;20041;-95
2022/03/27 02:47:39;;;;;;;28.83;14.82;;;6.20;99.90;;;;;;4836599;29;20025;-96
2022/03/27 02:50:05;;;;;;;27.17;14.30;;;6.20;99.90;;;;;;4822657;29;20053;-94
2022/03/27 02:52:33;;;;;;;32.00;15.70;;;6.20;99.90;;;;;;4853195;29;20094;-95
2022/03/27 02:54:59;;;;;;;31.77;16.30;;;6.10;99.90;;;;;;4836487;29;20049;-95
2022/03/27 02:57:26;;;;;;;39.35;17.17;;;6.10;99.90;;;;;;4853586;29;20030;-94
2022/03/27 02:59:54;;;;;;;35.22;16.30;;;6.10;99.90;;;;;;4852955;29;20030;-95
2022/03/27 03:02:21;;;;;;;24.67;12.10;;;6.10;99.90;;;;;;4836391;29;20041;-94
2022/03/27 03:04:46;;;;;;;38.05;16.58;;;6.00;99.90;;;;;;4836208;29;20075;-96
2022/03/27 03:07:16;;;;;;;31.55;15.63;;;6.10;99.90;;;;;;4822344;29;20034;-94
2022/03/27 03:09:42;;;;;;;33.83;15.52;;;6.00;99.90;;;;;;4833817;29;20030;-95
2022/03/27 03:12:09;;;;;;;28.17;14.95;;;6.00;99.90;;;;;;4817377;29;20105;-95
2022/03/27 03:14:35;;;;;;;30.58;16.15;;;6.00;99.90;;;;;;4832797;29;20038;-95
2022/03/27 03:17:03;;;;;;;29.30;15.40;;;5.90;99.90;;;;;;4852824;29;20098;-94
2022/03/27 03:19:30;;;;;;;28.92;14.07;;;6.00;99.90;;;;;;4853482;29;20105;-96
2022/03/27 03:21:57;;;;;;;22.70;12.48;;;6.00;99.90;;;;;;4852790;29;20113;-96
2022/03/27 03:24:27;;;;;;;28.80;13.77;;;6.00;99.90;;;;;;4851883;29;20038;-96
2022/03/27 03:26:54;;;;;;;26.45;13.32;;;6.00;99.90;;;;;;4835492;29;20038;-96
2022/03/27 03:29:21;;;;;;;25.23;13.05;;;6.10;99.90;;;;;;4831331;29;20042;-96
2022/03/27 03:31:49;;;;;;;25.45;13.80;;;6.10;99.90;;;;;;4831360;29;20034;-95
2022/03/27 03:34:16;;;;;;;23.20;12.10;;;6.10;99.90;;;;;;4818597;29;20136;-95
2022/03/27 03:36:43;;;;;;;23.05;11.90;;;6.10;99.90;;;;;;4850179;29;20050;-94
2022/03/27 03:39:09;;;;;;;25.60;12.80;;;6.10;99.90;;;;;;4836257;29;20053;-96
2022/03/27 03:41:35;;;;;;;25.27;12.38;;;6.20;99.90;;;;;;4841254;29;20038;-95
2022/03/27 03:44:03;;;;;;;22.45;11.73;;;6.10;99.90;;;;;;4854487;29;20114;-94
2022/03/27 03:46:29;;;;;;;23.45;11.60;;;6.10;99.90;;;;;;4837170;29;20054;-96
2022/03/27 03:48:54;;;;;;;22.98;12.02;;;6.00;99.90;;;;;;4836005;29;20133;-95
2022/03/27 03:51:23;;;;;;;29.17;14.90;;;5.90;99.90;;;;;;4834253;29;20033;-95
2022/03/27 03:53:49;;;;;;;32.45;16.10;;;5.90;99.90;;;;;;4854589;29;20071;-95
2022/03/27 03:56:15;;;;;;;35.58;17.70;;;5.80;99.90;;;;;;4839292;29;20034;-95
2022/03/27 03:58:41;;;;;;;39.00;18.50;;;5.80;99.90;;;;;;4838745;29;20042;-95
2022/03/27 04:01:07;;;;;;;31.90;15.63;;;5.70;99.90;;;;;;4854079;29;20424;-95
2022/03/27 04:03:33;;;;;;;33.80;16.88;;;5.60;99.90;;;;;;4852715;29;20029;-94
2022/03/27 04:06:01;;;;;;;29.27;14.60;;;5.60;99.90;;;;;;4853641;29;20030;-94
2022/03/27 04:08:27;;;;;;;25.23;12.70;;;5.50;99.90;;;;;;4840973;29;20046;-94
2022/03/27 04:10:54;;;;;;;22.05;11.32;;;5.50;99.90;;;;;;4856797;29;20055;-93
2022/03/27 04:13:19;;;;;;;24.92;10.93;;;5.50;99.90;;;;;;4837617;29;20042;-95
2022/03/27 04:15:46;;;;;;;24.40;11.63;;;5.40;99.90;;;;;;4850909;29;20048;-94
2022/03/27 04:18:13;;;;;;;25.42;11.68;;;5.40;99.90;;;;;;4837430;29;20026;-95
2022/03/27 04:20:41;;;;;;;25.80;11.52;;;5.30;99.90;;;;;;4844597;29;20670;-94
2022/03/27 04:23:07;;;;;;;26.08;11.85;;;5.30;99.90;;;;;;4848995;29;20042;-95
2022/03/27 04:25:33;;;;;;;26.05;11.77;;;5.40;99.90;;;;;;4835167;29;20030;-94
2022/03/27 04:28:05;;;;;;;25.73;12.15;;;5.40;99.90;;;;;;4819452;29;20063;-95
2022/03/27 04:30:31;;;;;;;26.30;11.63;;;5.50;99.90;;;;;;4833251;29;20086;-92
2022/03/27 04:32:56;;;;;;;26.25;11.35;;;5.50;99.90;;;;;;4834365;29;20038;-95
2022/03/27 04:35:22;;;;;;;21.80;10.70;;;5.60;99.90;;;;;;4849690;29;20026;-94
2022/03/27 04:37:48;;;;;;;23.23;10.90;;;5.60;99.90;;;;;;4847311;29;20073;-93
2022/03/27 04:40:14;;;;;;;22.23;10.55;;;5.60;99.90;;;;;;4831533;29;20140;-93
2022/03/27 04:42:41;;;;;;;20.50;10.18;;;5.60;99.90;;;;;;4846672;29;20026;-94
2022/03/27 04:45:09;;;;;;;22.58;10.05;;;5.60;99.90;;;;;;4846481;29;20032;-93
2022/03/27 04:47:35;;;;;;;22.10;10.90;;;5.50;99.90;;;;;;4830215;29;20038;-93
2022/03/27 04:50:04;;;;;;;20.17;10.00;;;5.50;99.90;;;;;;4849315;29;20047;-93
2022/03/27 04:52:30;;;;;;;20.40;10.05;;;5.60;99.90;;;;;;4834669;29;20034;-94
2022/03/27 04:54:56;;;;;;;18.52;9.48;;;5.50;99.90;;;;;;4837067;29;20041;-93
2022/03/27 04:57:22;;;;;;;17.83;8.50;;;5.50;99.90;;;;;;4844400;29;20026;-94
2022/03/27 04:59:48;;;;;;;23.92;12.02;;;5.50;99.90;;;;;;4828576;29;20063;-94
2022/03/27 05:02:14;;;;;;;26.92;13.32;;;5.50;99.90;;;;;;4842498;29;20026;-93
2022/03/27 05:04:41;;;;;;;31.35;13.68;;;5.40;99.90;;;;;;4819260;29;20101;-93
2022/03/27 05:07:08;;;;;;;29.92;14.38;;;5.30;99.90;;;;;;4834138;29;20029;-94
2022/03/27 05:09:34;;;;;;;34.15;15.43;;;5.20;99.90;;;;;;4819656;29;20042;-94
2022/03/27 05:12:00;;;;;;;29.92;14.98;;;5.10;99.90;;;;;;4806165;29;20038;-93
2022/03/27 05:14:25;;;;;;;34.58;15.77;;;5.00;99.90;;;;;;4854135;29;20080;-92
2022/03/27 05:16:51;;;;;;;28.33;13.45;;;4.90;99.90;;;;;;4841640;29;20030;-93
2022/03/27 05:19:17;;;;;;;26.33;12.68;;;4.80;99.90;;;;;;4860401;29;20045;-92
2022/03/27 05:21:43;;;;;;;22.08;10.25;;;4.80;99.90;;;;;;4848646;29;20022;-91
2022/03/27 05:24:09;;;;;;;21.52;10.73;;;4.80;99.90;;;;;;4849951;29;20033;-92
2022/03/27 05:26:36;;;;;;;21.50;10.60;;;4.80;99.90;;;;;;4848579;29;20029;-92
2022/03/27 05:29:05;;;;;;;24.98;11.70;;;4.70;99.90;;;;;;4865314;29;20024;-95
2022/03/27 05:31:32;;;;;;;21.70;10.70;;;4.70;99.90;;;;;;4859771;29;20041;-94
2022/03/27 05:33:58;;;;;;;22.77;10.82;;;4.70;99.90;;;;;;4849102;29;20026;-94
2022/03/27 05:36:25;;;;;;;19.63;9.73;;;4.70;99.90;;;;;;4825868;29;20522;-94
2022/03/27 05:38:52;;;;;;;21.20;10.60;;;4.70;99.90;;;;;;4851925;29;20479;-94
2022/03/27 05:41:19;;;;;;;20.77;9.65;;;4.70;99.90;;;;;;4835579;29;20129;-95
2022/03/27 05:43:45;;;;;;;24.77;10.40;;;4.80;99.90;;;;;;4853481;29;20480;-94
2022/03/27 05:46:11;;;;;;;18.65;9.40;;;4.80;99.90;;;;;;4834189;29;20120;-94
2022/03/27 05:48:38;;;;;;;21.52;10.48;;;4.90;99.90;;;;;;4833352;29;20072;-94
2022/03/27 05:51:05;;;;;;;20.30;9.43;;;4.90;99.90;;;;;;4834741;29;20082;-93
2022/03/27 05:53:33;;;;;;;23.30;9.73;;;4.90;99.90;;;;;;4834593;29;20049;-94
2022/03/27 05:55:59;;;;;;;22.70;9.85;;;4.90;99.90;;;;;;4834947;29;20034;-93
2022/03/27 05:58:25;;;;;;;20.70;9.65;;;5.00;99.90;;;;;;4834873;29;20052;-92
2022/03/27 06:00:52;;;;;;;17.17;8.18;;;5.00;99.90;;;;;;4820466;29;20033;-94
2022/03/27 06:03:18;;;;;;;19.83;9.50;;;5.00;99.90;;;;;;4835201;29;20122;-94
2022/03/27 06:05:45;;;;;;;19.90;9.32;;;5.10;99.90;;;;;;4858332;29;20093;-93
2022/03/27 06:08:12;;;;;;;19.73;9.23;;;5.10;99.90;;;;;;4819887;29;20084;-94
2022/03/27 06:10:39;;;;;;;17.17;7.85;;;5.10;99.90;;;;;;4836623;29;20045;-94
2022/03/27 06:13:05;;;;;;;20.48;10.18;;;5.10;99.90;;;;;;4839779;29;20120;-93
2022/03/27 06:15:32;;;;;;;30.08;13.32;;;5.10;99.90;;;;;;4857938;29;20037;-93
2022/03/27 06:17:58;;;;;;;24.05;10.38;;;5.10;99.90;;;;;;4836310;29;20056;-93
2022/03/27 06:20:27;;;;;;;21.25;9.80;;;5.10;99.90;;;;;;4844295;29;20020;-93
2022/03/27 06:22:55;;;;;;;19.15;9.50;;;5.00;99.90;;;;;;4866171;29;20049;-93
2022/03/27 06:25:24;;;;;;;18.90;9.65;;;5.00;99.90;;;;;;4837788;29;20045;-93
2022/03/27 06:27:51;;;;;;;16.58;8.57;;;5.10;99.90;;;;;;4833863;29;20037;-92
2022/03/27 06:30:19;;;;;;;16.90;8.10;;;5.10;99.90;;;;;;4832701;29;20026;-93
2022/03/27 06:32:47;;;;;;;19.17;8.63;;;5.10;99.90;;;;;;4832399;29;20121;-93
2022/03/27 06:35:16;;;;;;;21.65;10.40;;;5.10;99.90;;;;;;4833141;29;20022;-93
2022/03/27 06:37:43;;;;;;;28.02;13.25;;;5.10;99.90;;;;;;4816636;29;20118;-93
2022/03/27 06:40:12;;;;;;;25.10;12.20;;;5.10;99.90;;;;;;4833210;29;20082;-93
2022/03/27 06:42:40;;;;;;;23.48;11.05;;;5.10;99.90;;;;;;4798443;29;20109;-93
2022/03/27 06:45:07;;;;;;;30.90;13.15;;;5.00;99.90;;;;;;4835027;29;20037;-93
2022/03/27 06:47:35;;;;;;;31.40;14.98;;;4.90;99.90;;;;;;4846954;29;20030;-93
2022/03/27 06:50:02;;;;;;;32.17;14.13;;;4.80;99.90;;;;;;4836943;29;20046;-93
2022/03/27 06:52:28;;;;;;;32.80;15.07;;;4.70;99.90;;;;;;4840555;29;20027;-94
2022/03/27 06:54:55;;;;;;;26.63;12.02;;;4.70;99.90;;;;;;4829645;29;20030;-92
2022/03/27 06:57:21;;;;;;;21.10;10.15;;;4.60;99.90;;;;;;4828483;29;20055;-94
2022/03/27 07:05:16;;;;;;;15.63;7.35;;;4.70;99.90;;;;;;4845435;29;20073;-93
2022/03/27 07:07:45;;;;;;;22.58;11.55;;;4.70;99.90;;;;;;4849735;29;20394;-94
2022/03/27 07:10:11;;;;;;;20.88;10.63;;;4.70;99.90;;;;;;4842098;29;20030;-94
2022/03/27 07:12:38;;;;;;;19.48;9.50;;;4.70;99.90;;;;;;4827825;29;20373;-94
2022/03/27 07:15:06;;;;;;;16.42;8.02;;;4.80;99.90;;;;;;4831552;29;20089;-94
2022/03/27 07:17:41;;;;;;;17.73;8.65;;;4.90;99.90;;;;;;4835499;29;20045;-93
2022/03/27 07:20:09;;;;;;;15.57;7.45;;;5.00;99.90;;;;;;4822654;29;20074;-94
2022/03/27 07:22:37;;;;;;;13.30;6.93;;;5.20;99.90;;;;;;4844882;29;20038;-93
2022/03/27 07:25:03;;;;;;;13.45;6.28;;;5.40;99.90;;;;;;4818244;29;20038;-94
2022/03/27 07:27:31;;;;;;;16.42;7.28;;;5.60;99.90;;;;;;4857870;29;20011;-93
2022/03/27 07:29:56;;;;;;;12.88;6.45;;;5.70;99.90;;;;;;4849458;29;20140;-92
2022/03/27 07:32:23;;;;;;;12.85;6.72;;;5.80;99.90;;;;;;4846292;29;20065;-93
2022/03/27 07:34:49;;;;;;;11.75;6.00;;;5.90;99.90;;;;;;4842955;29;20125;-94
2022/03/27 07:37:15;;;;;;;14.85;6.95;;;6.00;99.90;;;;;;4823509;29;20074;-95
2022/03/27 07:39:43;;;;;;;16.83;7.60;;;6.10;99.90;;;;;;4836161;29;20088;-93
2022/03/27 07:42:10;;;;;;;10.38;6.25;;;6.20;99.90;;;;;;4824800;29;20022;-93
2022/03/27 07:44:36;;;;;;;11.02;6.40;;;6.30;99.90;;;;;;4823043;29;20094;-93
2022/03/27 07:47:04;;;;;;;17.13;7.50;;;6.30;99.90;;;;;;4827390;29;20107;-93
2022/03/27 07:49:29;;;;;;;13.90;6.50;;;6.40;99.90;;;;;;4845973;29;20030;-93
2022/03/27 07:51:56;;;;;;;16.52;7.25;;;6.50;99.90;;;;;;4852294;29;20071;-91
2022/03/27 07:54:22;;;;;;;15.57;7.47;;;6.60;99.90;;;;;;4824427;29;20073;-92
2022/03/27 07:56:48;;;;;;;18.48;9.15;;;6.60;99.90;;;;;;4822730;29;20029;-91
2022/03/27 07:59:13;;;;;;;16.75;8.02;;;6.60;99.90;;;;;;4842327;29;20022;-92
2022/03/27 08:01:39;;;;;;;13.88;6.85;;;6.70;99.90;;;;;;4822712;29;20026;-93
2022/03/27 08:04:05;;;;;;;12.27;6.45;;;6.80;99.90;;;;;;4821044;29;20033;-92
2022/03/27 08:06:36;;;;;;;15.20;7.38;;;6.90;99.90;;;;;;4820298;29;20026;-93
2022/03/27 08:09:07;;;;;;;16.45;7.50;;;7.00;99.90;;;;;;4819431;29;20143;-93
2022/03/27 08:11:35;;;;;;;18.13;8.48;;;7.20;99.90;;;;;;4821829;29;20075;-93
2022/03/27 08:14:01;;;;;;;16.00;6.85;;;7.30;99.90;;;;;;4821484;29;20422;-94
2022/03/27 08:16:27;;;;;;;15.60;7.32;;;7.40;99.90;;;;;;4823806;29;20036;-92
2022/03/27 08:18:52;;;;;;;15.43;7.63;;;7.50;99.90;;;;;;4834552;29;20040;-93
2022/03/27 08:21:18;;;;;;;15.25;6.35;;;7.60;99.90;;;;;;4827688;29;20039;-93
2022/03/27 08:23:44;;;;;;;15.13;7.45;;;7.70;99.90;;;;;;4847460;29;20050;-93
2022/03/27 08:29:11;;;;;;;17.73;7.40;;;7.80;99.90;;;;;;4764134;30;20063;-94
2022/03/27 08:31:43;;;;;;;16.35;8.25;;;8.00;99.90;;;;;;4762392;30;20044;-93
2022/03/27 08:34:09;;;;;;;19.88;9.73;;;8.10;99.90;;;;;;4744601;30;20048;-94
2022/03/27 08:36:35;;;;;;;22.83;9.25;;;8.20;99.90;;;;;;4745060;30;20048;-92
2022/03/27 08:39:01;;;;;;;27.17;9.80;;;8.40;99.90;;;;;;4740000;30;20096;-91
2022/03/27 08:41:28;;;;;;;18.27;8.57;;;8.60;99.90;;;;;;4741937;30;20060;-92
2022/03/27 08:43:58;;;;;;;20.63;9.90;;;8.80;99.90;;;;;;4739884;30;20151;-92
2022/03/27 08:46:28;;;;;;;26.35;10.30;;;9.00;99.90;;;;;;4738500;30;20033;-92
2022/03/27 08:48:59;;;;;;;20.20;10.25;;;9.10;99.90;;;;;;4740122;30;20052;-91
2022/03/27 08:51:40;;;;;;;20.17;9.75;;;9.30;99.90;;;;;;4738259;30;20041;-93
2022/03/27 08:54:16;;;;;;;21.08;9.38;;;9.50;99.90;;;;;;4737516;30;20077;-92
2022/03/27 08:56:49;;;;;;;19.83;9.95;;;9.70;99.90;;;;;;4721873;30;20443;-92
2022/03/27 08:59:18;;;;;;;23.38;8.93;;;9.90;99.90;;;;;;4750338;30;20082;-93
2022/03/27 09:01:45;;;;;;;21.95;9.25;;;10.10;99.90;;;;;;4738520;30;20067;-93
2022/03/27 09:04:14;;;;;;;25.17;8.45;;;10.20;99.90;;;;;;4806721;29;20035;-91
2022/03/27 09:06:41;;;;;;;19.92;8.35;;;10.30;99.90;;;;;;4812264;29;20054;-94
2022/03/27 09:09:07;;;;;;;20.67;7.65;;;10.40;99.90;;;;;;4812235;29;20028;-93
2022/03/27 09:11:36;;;;;;;17.50;7.93;;;10.60;99.90;;;;;;4812176;29;20037;-91
2022/03/27 09:14:04;;;;;;;15.68;6.57;;;10.70;99.90;;;;;;4811868;29;20122;-90
2022/03/27 09:16:51;;;;;;;14.10;6.50;;;10.90;99.90;;;;;;4841174;29;20045;-92
2022/03/27 09:19:51;;;;;;;12.30;5.82;;;11.00;99.90;;;;;;4810525;29;20038;-91
2022/03/27 09:22:31;;;;;;;13.65;7.07;;;11.20;99.90;;;;;;4816673;29;20030;-91
2022/03/27 09:25:00;;;;;;;13.05;5.78;;;11.40;99.90;;;;;;4815250;29;20389;-91
2022/03/27 09:27:30;;;;;;;14.82;6.38;;;11.50;99.90;;;;;;4817076;29;20030;-92
2022/03/27 09:30:07;;;;;;;11.48;5.05;;;11.70;99.90;;;;;;4832930;29;20034;-92
2022/03/27 09:32:45;;;;;;;11.82;5.20;;;11.90;99.90;;;;;;4815806;29;20030;-92
2022/03/27 09:35:13;;;;;;;11.20;5.20;;;12.00;99.90;;;;;;4815814;29;20047;-94
2022/03/27 09:37:41;;;;;;;7.80;4.38;;;12.10;99.90;;;;;;4826488;29;20054;-92
2022/03/27 09:40:10;;;;;;;10.93;4.93;;;12.20;99.90;;;;;;4820711;29;20434;-91
2022/03/27 09:42:38;;;;;;;9.35;5.30;;;12.30;99.90;;;;;;4818278;29;20042;-92
2022/03/27 09:45:20;;;;;;;11.98;5.28;;;12.40;99.90;;;;;;4812975;29;20054;-92
2022/03/27 09:47:53;;;;;;;8.35;4.78;;;12.50;99.90;;;;;;4818934;29;20102;-94
2022/03/27 09:50:50;;;;;;;12.05;5.00;;;12.60;99.90;;;;;;4818519;29;20031;-92
2022/03/27 09:53:29;;;;;;;9.38;4.45;;;12.70;99.90;;;;;;4794085;29;20058;-92
2022/03/27 09:56:01;;;;;;;8.63;4.10;;;12.80;99.90;;;;;;4824277;29;20038;-93
2022/03/27 09:58:53;;;;;;;9.23;5.20;;;12.90;99.90;;;;;;4829559;29;20026;-91
2022/03/27 10:01:24;;;;;;;9.40;4.97;;;13.10;99.90;;;;;;4824848;29;20031;-90
2022/03/27 10:03:59;;;;;;;9.02;5.45;;;13.20;99.90;;;;;;4831443;29;20073;-91
2022/03/27 10:06:30;;;;;;;12.30;6.38;;;13.40;99.90;;;;;;4819678;29;20034;-92
2022/03/27 10:08:59;;;;;;;14.10;6.25;;;13.50;99.90;;;;;;4815910;29;20064;-92
2022/03/27 10:11:26;;;;;;;11.20;5.95;;;13.60;99.90;;;;;;4821825;29;20026;-92
2022/03/27 10:13:53;;;;;;;13.63;6.38;;;13.70;99.90;;;;;;4836160;29;20038;-92
2022/03/27 10:16:30;;;;;;;10.60;5.93;;;13.80;99.90;;;;;;4832854;29;20528;-92
2022/03/27 10:19:02;;;;;;;12.50;6.93;;;13.90;99.90;;;;;;4840933;29;20075;-91
2022/03/27 10:21:29;;;;;;;10.50;5.30;;;14.10;99.90;;;;;;4832308;29;20031;-95
2022/03/27 10:24:11;;;;;;;18.77;7.93;;;14.20;99.90;;;;;;4819785;29;20040;-93
2022/03/27 10:26:39;;;;;;;13.57;7.20;;;14.40;99.90;;;;;;4828412;29;20030;-95
2022/03/27 10:29:08;;;;;;;12.20;6.53;;;14.50;99.90;;;;;;4819944;29;20054;-94
2022/03/27 10:31:35;;;;;;;14.30;7.07;;;14.80;99.40;;;;;;4833796;29;20178;-94
2022/03/27 10:34:04;;;;;;;17.27;7.38;;;15.00;98.40;;;;;;4834125;29;20034;-95
2022/03/27 10:36:47;;;;;;;12.93;7.22;;;15.10;97.30;;;;;;4833977;29;20373;-93
2022/03/27 10:39:23;;;;;;;14.73;7.03;;;15.20;96.20;;;;;;4823901;29;20031;-93
2022/03/27 10:42:07;;;;;;;10.05;6.85;;;15.20;95.50;;;;;;4822791;29;20043;-93
2022/03/27 10:44:56;;;;;;;11.82;7.55;;;15.30;95.20;;;;;;4843137;29;20117;-94
2022/03/27 10:47:25;;;;;;;14.38;6.57;;;15.50;94.50;;;;;;4856205;29;20034;-93
2022/03/27 10:50:05;;;;;;;10.45;6.40;;;15.60;94.10;;;;;;4819047;29;20042;-93
2022/03/27 10:52:39;;;;;;;10.55;6.40;;;15.80;93.30;;;;;;4829264;29;20025;-93
2022/03/27 10:55:11;;;;;;;11.35;6.00;;;15.90;92.70;;;;;;4831690;29;20069;-93
2022/03/27 10:57:51;;;;;;;13.45;6.40;;;15.90;92.40;;;;;;4831207;29;20026;-93
2022/03/27 11:00:47;;;;;;;12.10;5.90;;;16.00;91.90;;;;;;4853622;29;20231;-92
2022/03/27 11:03:47;;;;;;;15.82;6.10;;;16.20;92.00;;;;;;4783153;29;20100;-93
2022/03/27 11:06:20;;;;;;;11.95;5.65;;;16.50;91.00;;;;;;4815260;29;20037;-95
2022/03/27 11:08:48;;;;;;;9.68;4.80;;;16.60;90.40;;;;;;4832578;29;20036;-96
2022/03/27 11:11:33;;;;;;;7.15;4.90;;;16.60;89.70;;;;;;4814999;29;20335;-94
2022/03/27 11:14:00;;;;;;;9.07;4.70;;;16.60;88.10;;;;;;4815196;29;20070;-94
2022/03/27 11:16:26;;;;;;;7.55;4.70;;;16.50;87.40;;;;;;4822584;29;20514;-93
2022/03/27 11:18:51;;;;;;;13.57;4.53;;;16.40;87.30;;;;;;4804860;29;20074;-94
2022/03/27 11:21:26;;;;;;;9.68;5.28;;;16.50;87.30;;;;;;4824300;29;20023;-96
2022/03/27 11:24:15;;;;;;;7.60;3.83;;;16.50;86.60;;;;;;4825978;29;20042;-93
2022/03/27 11:26:41;;;;;;;7.72;4.25;;;16.50;86.10;;;;;;4815947;29;20039;-95
2022/03/27 11:29:22;;;;;;;8.02;4.28;;;16.60;85.90;;;;;;4820610;29;20027;-92
2022/03/27 11:32:08;;;;;;;6.63;3.75;;;16.70;85.40;;;;;;4832761;29;20050;-94
2022/03/27 11:34:39;;;;;;;7.50;3.72;;;17.00;85.30;;;;;;4832773;29;20057;-94
2022/03/27 11:37:12;;;;;;;;;;;17.10;84.20;;;;;;4833592;29;20039;-93
2022/03/27 11:39:39;;;;;;;5.45;3.25;;;17.20;83.70;;;;;;4832192;29;19924;-93
2022/03/27 11:42:30;;;;;;;5.22;3.05;;;17.40;82.10;;;;;;4832763;29;20034;-94
2022/03/27 11:45:07;;;;;;;7.30;3.60;;;17.50;81.30;;;;;;4826932;29;20038;-92
2022/03/27 11:47:36;;;;;;;6.95;3.30;;;17.80;80.90;;;;;;4828845;29;20035;-92
2022/03/27 11:50:03;;;;;;;7.97;4.45;;;18.10;79.80;;;;;;4832290;29;20046;-94
2022/03/27 11:52:29;;;;;;;10.23;4.53;;;18.40;78.50;;;;;;4831922;29;20018;-92
2022/03/27 11:55:12;;;;;;;9.75;4.55;;;18.60;77.30;;;;;;4861539;29;20030;-93
2022/03/27 11:57:51;;;;;;;9.27;4.85;;;18.80;76.70;;;;;;4827981;29;20043;-96
2022/03/27 12:00:30;;;;;;;9.55;4.60;;;19.00;75.70;;;;;;4826133;29;20087;-94
2022/03/27 12:02:55;;;;;;;7.93;4.53;;;19.20;74.60;;;;;;4824518;29;20125;-94
2022/03/27 12:05:22;;;;;;;10.98;5.75;;;19.40;73.70;;;;;;4826981;29;20457;-94
2022/03/27 12:07:57;;;;;;;8.63;4.93;;;19.30;72.70;;;;;;4808861;29;20049;-95
2022/03/27 12:10:26;;;;;;;9.23;5.13;;;19.20;72.30;;;;;;4851405;29;20030;-94
2022/03/27 12:13:08;;;;;;;9.70;6.18;;;19.10;72.30;;;;;;4819110;29;20038;-95
2022/03/27 12:15:46;;;;;;;7.90;5.32;;;19.20;72.20;;;;;;4831928;29;20034;-96
2022/03/27 12:18:44;;;;;;;9.77;5.97;;;19.30;72.00;;;;;;4827942;29;20038;-96
2022/03/27 12:21:27;;;;;;;10.05;6.88;;;19.50;71.20;;;;;;4836329;29;20038;-96
2022/03/27 12:24:07;;;;;;;10.93;6.38;;;19.50;70.50;;;;;;4839090;29;20034;-96
2022/03/27 12:32:32;;;;;;;10.27;6.28;;;19.90;70.30;;;;;;4777079;30;20036;-92
2022/03/27 12:35:01;;;;;;;10.45;6.60;;;20.20;69.30;;;;;;4758776;30;20060;-93
2022/03/27 12:37:29;;;;;;;12.88;7.03;;;20.50;68.50;;;;;;4769131;30;20052;-93
2022/03/27 12:39:55;;;;;;;10.80;7.15;;;20.70;67.40;;;;;;4762667;30;20024;-93
2022/03/27 12:42:33;;;;;;;11.55;7.47;;;21.10;66.50;;;;;;4758390;30;20025;-93
2022/03/27 12:45:27;;;;;;;11.40;7.60;;;21.30;65.30;;;;;;4740569;30;20036;-93
2022/03/27 12:48:03;;;;;;;15.77;10.10;;;21.30;64.30;;;;;;4751099;30;20094;-93
2022/03/27 12:50:31;;;;;;;16.35;9.43;;;21.30;64.30;;;;;;4741905;30;20039;-93
2022/03/27 12:53:05;;;;;;;15.35;8.65;;;21.10;64.60;;;;;;4772898;30;20043;-92
2022/03/27 12:55:48;;;;;;;14.40;9.07;;;20.90;64.80;;;;;;4745104;30;20043;-94
2022/03/27 12:58:46;;;;;;;14.05;9.25;;;20.60;64.90;;;;;;4777306;30;20063;-95
2022/03/27 13:01:19;;;;;;;16.25;9.93;;;20.40;65.40;;;;;;4739304;30;20148;-95
2022/03/27 13:04:08;;;;;;;16.75;9.85;;;20.30;65.80;;;;;;4778859;30;20036;-94
2022/03/27 13:07:03;;;;;;;16.95;11.05;;;20.30;65.90;;;;;;4799872;29;20102;-95
2022/03/27 13:09:34;;;;;;;16.27;10.65;;;20.20;66.00;;;;;;4814516;29;20045;-95
2022/03/27 13:12:43;;;;;;;19.58;12.32;;;20.40;66.20;;;;;;4842122;29;20038;-96
2022/03/27 13:15:11;;;;;;;20.63;12.40;;;20.60;65.70;;;;;;4840596;29;20042;-94
2022/03/27 13:17:40;;;;;;;17.85;11.40;;;20.60;65.30;;;;;;4837676;29;20029;-95